Time;durP1;ratioP1;P1;durP2;ratioP2;P2;SDS_P1;SDS_P2;PMS_P1;PMS_P2;Temp;Humidity;BMP_temperature;BMP_pressure;BME280_temperature;BME280_humidity;BME280_pressure;Samples;Min_cycle;Max_cycle;Signal;HPM_P1;HPM_P2
2021/01/17 00:01:17;;;;;;;12.50;10.43;;;;;;;-4.65;83.57;98186.47;4961981;28;20919;-73
2021/01/17 00:03:44;;;;;;;12.90;11.50;;;;;;;-4.62;84.37;98176.88;4963177;28;20517;-73
2021/01/17 00:06:12;;;;;;;13.93;10.83;;;;;;;-4.63;84.69;98177.78;4962339;28;20477;-73
2021/01/17 00:08:40;;;;;;;14.00;11.73;;;;;;;-4.76;85.41;98175.69;4962787;28;20467;-73
2021/01/17 00:11:07;;;;;;;13.17;11.87;;;;;;;-4.77;85.98;98173.19;4961034;28;20980;-74
2021/01/17 00:13:34;;;;;;;13.10;11.77;;;;;;;-4.89;86.40;98169.34;4961585;28;20453;-73
2021/01/17 00:16:01;;;;;;;12.07;10.67;;;;;;;-4.89;86.93;98162.47;4960960;28;20501;-73
2021/01/17 00:18:28;;;;;;;13.83;11.00;;;;;;;-4.70;86.24;98159.09;4961573;28;20458;-74
2021/01/17 00:21:08;;;;;;;14.20;12.07;;;;;;;-4.66;85.70;98147.72;4962967;28;20445;-74
2021/01/17 00:23:36;;;;;;;13.67;12.27;;;;;;;-4.68;85.76;98149.53;4963218;28;20481;-74
2021/01/17 00:26:04;;;;;;;14.13;11.90;;;;;;;-4.64;85.56;98138.13;4959408;28;21033;-73
2021/01/17 00:28:31;;;;;;;14.40;11.90;;;;;;;-4.79;85.90;98144.78;4962221;28;20489;-73
2021/01/17 00:30:59;;;;;;;14.53;12.33;;;;;;;-4.74;86.05;98136.84;4961799;28;20485;-74
2021/01/17 00:33:26;;;;;;;19.90;12.73;;;;;;;-4.71;85.69;98134.13;4962368;28;20893;-74
2021/01/17 00:35:54;;;;;;;15.17;12.50;;;;;;;-4.89;87.06;98136.59;4959494;28;20474;-73
2021/01/17 00:38:21;;;;;;;16.07;12.17;;;;;;;-4.74;86.88;98129.91;4962111;28;20959;-74
2021/01/17 00:40:48;;;;;;;17.40;12.57;;;;;;;-4.79;86.61;98116.34;4961334;28;20456;-73
2021/01/17 00:43:16;;;;;;;15.53;12.50;;;;;;;-4.83;87.30;98118.25;4962062;28;20580;-74
2021/01/17 00:45:44;;;;;;;14.37;11.27;;;;;;;-4.83;87.26;98125.16;4960744;28;20550;-74
2021/01/17 00:48:12;;;;;;;17.70;12.87;;;;;;;-5.00;87.67;98125.84;4960844;28;20461;-74
2021/01/17 00:50:39;;;;;;;18.20;13.93;;;;;;;-5.11;88.44;98123.72;4962659;28;20464;-73
2021/01/17 00:53:06;;;;;;;16.97;13.33;;;;;;;-5.25;89.55;98113.94;4961188;28;20815;-74
2021/01/17 00:55:33;;;;;;;14.53;12.97;;;;;;;-5.16;89.27;98108.41;4962035;28;20461;-74
2021/01/17 00:58:00;;;;;;;14.87;13.13;;;;;;;-5.09;90.44;98109.00;4962633;28;21016;-74
2021/01/17 01:00:29;;;;;;;14.50;12.80;;;;;;;-5.00;89.26;98103.44;4962959;28;20552;-74
2021/01/17 01:02:56;;;;;;;16.13;13.03;;;;;;;-4.95;89.80;98103.22;4962464;28;20524;-74
2021/01/17 01:05:24;;;;;;;17.90;13.03;;;;;;;-4.99;89.70;98102.53;4960330;28;20891;-73
2021/01/17 01:07:52;;;;;;;16.80;13.83;;;;;;;-5.09;90.83;98103.81;4961607;28;20829;-73
2021/01/17 01:10:20;;;;;;;17.97;15.27;;;;;;;-5.10;91.09;98100.38;4959300;28;20477;-73
2021/01/17 01:12:53;;;;;;;17.07;13.60;;;;;;;-5.12;91.38;98091.00;4963457;28;20457;-74
2021/01/17 01:15:20;;;;;;;19.00;13.60;;;;;;;-5.18;91.25;98094.69;4959114;28;20450;-73
2021/01/17 01:17:48;;;;;;;17.27;13.50;;;;;;;-5.14;91.75;98085.06;4963118;28;20572;-73
2021/01/17 01:20:15;;;;;;;19.43;15.07;;;;;;;-5.20;92.20;98086.16;4962390;28;20476;-74
2021/01/17 01:22:42;;;;;;;18.77;15.73;;;;;;;-5.19;92.46;98090.44;4962702;28;20487;-74
2021/01/17 01:25:10;;;;;;;20.83;15.80;;;;;;;-5.16;92.77;98095.47;4960967;28;20449;-72
2021/01/17 01:27:38;;;;;;;19.80;14.90;;;;;;;-5.20;92.61;98086.16;4960834;28;20481;-74
2021/01/17 01:30:06;;;;;;;19.37;16.53;;;;;;;-5.20;93.35;98082.72;4962340;28;20457;-73
2021/01/17 01:32:33;;;;;;;18.73;16.10;;;;;;;-5.21;92.25;98087.06;4960544;28;20577;-73
2021/01/17 01:35:01;;;;;;;18.33;16.27;;;;;;;-5.18;93.14;98088.69;4961637;28;20453;-73
2021/01/17 01:37:28;;;;;;;19.13;16.07;;;;;;;-5.13;93.23;98076.41;4961576;28;20499;-73
2021/01/17 01:39:56;;;;;;;18.33;16.00;;;;;;;-5.17;93.34;98072.25;4962601;28;20464;-73
2021/01/17 01:42:23;;;;;;;20.00;16.33;;;;;;;-5.25;93.33;98062.28;4960530;28;20624;-73
2021/01/17 01:44:50;;;;;;;20.17;16.27;;;;;;;-5.15;93.43;98060.13;4959177;28;20706;-73
2021/01/17 01:47:23;;;;;;;18.23;15.80;;;;;;;-5.12;93.71;98049.66;4955883;28;20482;-74
2021/01/17 01:49:52;;;;;;;19.33;16.80;;;;;;;-5.08;93.63;98046.06;4960986;28;20795;-74
2021/01/17 01:52:20;;;;;;;20.20;17.03;;;;;;;-5.09;92.90;98052.13;4961359;28;20450;-73
2021/01/17 01:54:48;;;;;;;19.50;16.23;;;;;;;-5.17;92.98;98047.28;4961624;28;20460;-73
2021/01/17 01:57:15;;;;;;;22.53;16.83;;;;;;;-5.05;93.77;98045.94;4961259;28;20481;-74
2021/01/17 01:59:42;;;;;;;22.77;17.27;;;;;;;-5.28;94.04;98036.56;4961233;28;20458;-73
2021/01/17 02:02:10;;;;;;;23.37;16.70;;;;;;;-5.12;94.38;98041.91;4960428;28;20597;-74
2021/01/17 02:04:37;;;;;;;21.67;17.53;;;;;;;-5.21;94.05;98034.53;4962783;28;20488;-72
2021/01/17 02:07:27;;;;;;;26.20;18.30;;;;;;;-5.30;94.01;98043.53;4962811;28;20477;-73
2021/01/17 02:09:55;;;;;;;25.77;18.33;;;;;;;-5.55;96.18;98035.03;4962917;28;20500;-73
2021/01/17 02:12:27;;;;;;;23.37;17.77;;;;;;;-5.54;96.43;98036.69;4965152;28;20552;-73
2021/01/17 02:14:57;;;;;;;21.87;17.40;;;;;;;-5.54;95.71;98034.13;4965420;28;20460;-73
2021/01/17 02:17:29;;;;;;;21.13;16.67;;;;;;;-5.53;95.60;98038.38;4964409;28;20495;-74
2021/01/17 02:20:12;;;;;;;25.10;17.43;;;;;;;-5.50;95.37;98023.66;4963006;28;20457;-74
2021/01/17 02:22:45;;;;;;;21.33;16.43;;;;;;;-5.48;96.00;98014.13;4964079;28;21024;-74
2021/01/17 02:25:14;;;;;;;21.53;15.73;;;;;;;-5.34;95.03;98010.97;4964935;28;20457;-73
2021/01/17 02:27:43;;;;;;;21.83;17.17;;;;;;;-5.18;93.89;98008.56;4962419;28;20918;-73
2021/01/17 02:30:12;;;;;;;22.03;16.83;;;;;;;-5.20;93.51;98008.66;4964510;28;20489;-73
2021/01/17 02:32:43;;;;;;;20.63;16.90;;;;;;;-5.35;94.94;98002.38;4964341;28;20470;-73
2021/01/17 02:35:11;;;;;;;26.53;17.30;;;;;;;-5.21;94.85;98001.81;4960405;28;20845;-73
2021/01/17 02:37:49;;;;;;;21.20;16.57;;;;;;;-5.19;95.76;98014.63;4963512;28;20507;-73
2021/01/17 02:40:33;;;;;;;20.17;16.43;;;;;;;-5.09;94.29;98013.38;4964470;28;20974;-73
2021/01/17 02:43:02;;;;;;;23.50;17.13;;;;;;;-5.06;93.81;98013.25;4964490;28;20843;-73
2021/01/17 02:45:29;;;;;;;22.97;17.47;;;;;;;-5.05;94.64;98020.09;4963696;28;20961;-74
2021/01/17 02:47:56;;;;;;;23.50;17.80;;;;;;;-5.12;95.36;98011.75;4961493;28;20557;-74
2021/01/17 02:50:23;;;;;;;21.47;16.83;;;;;;;-5.16;95.56;98007.63;4963361;28;20450;-73
2021/01/17 02:52:56;;;;;;;26.20;18.77;;;;;;;-5.07;94.81;98000.38;4962589;28;20727;-73
2021/01/17 02:55:24;;;;;;;24.03;18.87;;;;;;;-5.06;95.72;98002.03;4963924;28;20462;-72
2021/01/17 02:57:54;;;;;;;25.27;18.73;;;;;;;-4.93;94.14;97998.00;4963427;28;20663;-73
2021/01/17 03:00:24;;;;;;;23.53;18.03;;;;;;;-4.95;94.77;98000.69;4964771;28;20877;-73
2021/01/17 03:02:53;;;;;;;21.10;18.27;;;;;;;-4.85;93.43;97995.94;4964202;28;20541;-73
2021/01/17 03:05:21;;;;;;;23.10;18.33;;;;;;;-4.89;93.43;97991.81;4962170;28;20837;-74
2021/01/17 03:07:50;;;;;;;26.33;20.20;;;;;;;-5.01;94.30;97989.75;4964567;28;20470;-73
2021/01/17 03:10:18;;;;;;;25.13;19.97;;;;;;;-4.89;93.79;97988.38;4960939;28;20486;-73
2021/01/17 03:12:48;;;;;;;23.63;19.00;;;;;;;-4.72;92.95;97992.81;4963118;28;20540;-73
2021/01/17 03:15:16;;;;;;;23.97;18.20;;;;;;;-4.85;93.64;97993.38;4962248;28;21017;-73
2021/01/17 03:17:43;;;;;;;27.83;18.87;;;;;;;-4.74;93.63;97992.88;4964151;28;21030;-74
2021/01/17 03:20:11;;;;;;;26.17;19.13;;;;;;;-4.89;94.26;97990.97;4963344;28;20458;-74
2021/01/17 03:22:38;;;;;;;24.63;18.97;;;;;;;-4.96;95.31;97986.06;4962625;28;20492;-73
2021/01/17 03:25:06;;;;;;;25.87;19.03;;;;;;;-4.70;93.43;97994.44;4963764;28;20512;-74
2021/01/17 03:27:33;;;;;;;24.17;18.60;;;;;;;-4.85;93.64;97989.94;4960793;28;20571;-74
2021/01/17 03:30:01;;;;;;;23.57;18.60;;;;;;;-4.68;92.92;97982.28;4965027;28;20714;-74
2021/01/17 03:32:29;;;;;;;24.50;19.27;;;;;;;-4.73;93.20;97984.22;4963007;28;20566;-74
2021/01/17 03:34:56;;;;;;;26.27;19.73;;;;;;;-5.00;94.61;97983.69;4964150;28;20461;-74
2021/01/17 03:37:23;;;;;;;28.13;20.37;;;;;;;-4.92;94.66;97983.34;4960614;28;20590;-74
2021/01/17 03:39:50;;;;;;;23.80;18.43;;;;;;;-4.92;95.54;97988.53;4963197;28;20549;-73
2021/01/17 03:42:17;;;;;;;25.30;19.30;;;;;;;-4.95;95.39;97982.59;4963703;28;20567;-74
2021/01/17 03:44:48;;;;;;;28.17;21.43;;;;;;;-5.05;95.48;97983.91;4964241;28;20454;-74
2021/01/17 03:47:16;;;;;;;25.03;19.27;;;;;;;-4.95;96.01;97985.16;4962840;28;20519;-74
2021/01/17 03:49:44;;;;;;;26.27;20.37;;;;;;;-4.81;94.33;97986.31;4962002;28;20460;-74
2021/01/17 03:52:11;;;;;;;25.50;20.27;;;;;;;-4.89;95.16;97985.81;4962758;28;21125;-74
2021/01/17 03:54:38;;;;;;;26.83;19.77;;;;;;;-4.96;95.60;97985.22;4963756;28;20462;-74
2021/01/17 03:57:06;;;;;;;25.80;19.67;;;;;;;-4.99;96.09;97983.63;4962945;28;21008;-74
2021/01/17 03:59:33;;;;;;;26.23;19.37;;;;;;;-4.98;95.50;97982.72;4960413;28;20454;-74
2021/01/17 04:02:00;;;;;;;26.37;18.30;;;;;;;-4.93;95.95;97977.34;4964150;28;20457;-74
2021/01/17 04:04:28;;;;;;;24.10;18.70;;;;;;;-4.99;96.64;97975.03;4963566;28;20514;-74
2021/01/17 04:06:55;;;;;;;25.63;19.97;;;;;;;-4.96;96.61;97977.47;4961406;28;20484;-74
2021/01/17 04:09:22;;;;;;;24.07;19.20;;;;;;;-4.72;94.91;97979.88;4963067;28;20454;-74
2021/01/17 04:11:50;;;;;;;23.83;18.20;;;;;;;-4.90;94.68;97968.63;4964390;28;20794;-74
2021/01/17 04:14:17;;;;;;;24.13;18.67;;;;;;;-5.01;95.97;97969.94;4964306;28;20984;-75
2021/01/17 04:16:52;;;;;;;25.70;19.93;;;;;;;-4.98;95.94;97977.56;4962981;28;20547;-74
2021/01/17 04:19:19;;;;;;;26.47;20.23;;;;;;;-4.89;94.80;97983.22;4960235;28;20963;-74
2021/01/17 04:21:47;;;;;;;28.30;19.97;;;;;;;-4.90;94.26;97978.97;4962774;28;20613;-74
2021/01/17 04:24:15;;;;;;;25.73;19.60;;;;;;;-4.96;94.53;97973.16;4961763;28;20486;-73
2021/01/17 04:26:42;;;;;;;30.07;21.87;;;;;;;-4.69;93.77;97984.91;4960910;28;20477;-74
2021/01/17 04:29:10;;;;;;;26.93;19.50;;;;;;;-4.73;92.37;97981.66;4962303;28;21161;-73
2021/01/17 04:31:41;;;;;;;25.70;18.63;;;;;;;-4.85;94.13;97984.75;4962796;28;20461;-74
2021/01/17 04:34:09;;;;;;;27.43;19.10;;;;;;;-4.80;93.24;97978.50;4962238;28;20536;-74
2021/01/17 04:36:36;;;;;;;26.90;19.63;;;;;;;-5.03;94.08;97984.66;4962500;28;20487;-74
2021/01/17 04:39:05;;;;;;;26.70;20.17;;;;;;;-5.07;95.46;97974.53;4960558;28;20471;-74
2021/01/17 04:41:34;;;;;;;26.13;20.60;;;;;;;-5.08;95.04;97973.69;4960167;28;20797;-74
2021/01/17 04:44:04;;;;;;;30.47;21.23;;;;;;;-5.04;94.66;97980.41;4961824;28;20858;-74
2021/01/17 04:46:31;;;;;;;23.97;20.10;;;;;;;-5.09;95.08;97978.00;4960173;28;20476;-73
2021/01/17 04:49:01;;;;;;;26.23;19.70;;;;;;;-5.06;94.78;97987.38;4962529;28;20946;-74
2021/01/17 04:51:28;;;;;;;26.03;20.40;;;;;;;-5.09;95.70;97992.69;4962719;28;20449;-74
2021/01/17 04:53:56;;;;;;;27.20;20.07;;;;;;;-5.07;95.24;97984.84;4962515;28;20446;-73
2021/01/17 04:56:26;;;;;;;29.73;20.87;;;;;;;-5.06;95.35;97981.38;4959423;28;20496;-74
2021/01/17 04:59:11;;;;;;;27.07;19.47;;;;;;;-4.84;93.79;97987.28;4963043;28;20798;-73
2021/01/17 05:02:12;;;;;;;24.07;19.27;;;;;;;-4.95;94.28;97979.16;4960989;28;20536;-74
2021/01/17 05:05:01;;;;;;;27.70;20.93;;;;;;;-4.91;93.55;97982.44;4938915;28;20501;-74
2021/01/17 05:07:35;;;;;;;27.03;20.33;;;;;;;-4.79;92.79;97984.47;4953946;28;20457;-74
2021/01/17 05:10:05;;;;;;;29.57;19.70;;;;;;;-5.06;93.49;97982.22;4959767;28;20931;-73
2021/01/17 05:12:39;;;;;;;25.97;20.77;;;;;;;-5.05;94.40;97986.47;4959139;28;21062;-74
2021/01/17 05:15:08;;;;;;;30.63;21.23;;;;;;;-5.02;94.20;97981.19;4958936;28;20737;-74
2021/01/17 05:17:39;;;;;;;26.67;20.10;;;;;;;-5.03;94.34;97979.50;4956377;28;20485;-76
2021/01/17 05:20:09;;;;;;;28.50;19.80;;;;;;;-4.94;93.00;97980.81;4956698;28;20462;-73
2021/01/17 05:22:37;;;;;;;29.30;20.30;;;;;;;-5.03;93.50;97982.09;4957196;28;20496;-74
2021/01/17 05:25:06;;;;;;;32.47;21.57;;;;;;;-5.08;94.43;97976.28;4957763;28;20869;-74
2021/01/17 05:27:33;;;;;;;27.30;20.63;;;;;;;-4.86;92.86;97971.00;4957977;28;20481;-68
2021/01/17 05:30:02;;;;;;;28.10;19.80;;;;;;;-4.78;92.17;97969.81;4959342;28;20485;-68
2021/01/17 05:32:29;;;;;;;27.67;19.00;;;;;;;-4.80;91.84;97972.47;4962166;28;20819;-73
2021/01/17 05:34:57;;;;;;;27.07;19.73;;;;;;;-4.76;92.36;97973.19;4960484;28;20913;-73
2021/01/17 05:37:24;;;;;;;24.13;19.80;;;;;;;-4.77;93.03;97974.09;4960899;28;20480;-75
2021/01/17 05:39:56;;;;;;;26.57;20.07;;;;;;;-4.89;93.57;97978.03;4965211;28;20460;-72
2021/01/17 05:42:24;;;;;;;28.93;21.30;;;;;;;-4.80;92.69;97975.91;4959972;28;20984;-74
2021/01/17 05:44:51;;;;;;;31.77;22.03;;;;;;;-4.77;93.69;97981.84;4962953;28;20557;-74
2021/01/17 05:47:21;;;;;;;26.00;19.30;;;;;;;-4.78;92.62;97981.00;4962984;28;20477;-74
2021/01/17 05:49:49;;;;;;;29.17;21.40;;;;;;;-4.80;92.92;97981.06;4961475;28;20458;-74
2021/01/17 05:52:17;;;;;;;27.87;20.23;;;;;;;-4.84;93.28;97982.13;4961526;28;20476;-75
2021/01/17 05:54:48;;;;;;;28.20;20.23;;;;;;;-4.86;93.71;97975.31;4959311;28;20461;-74
2021/01/17 05:57:16;;;;;;;28.23;22.37;;;;;;;-4.82;94.15;97982.88;4961195;28;21035;-73
2021/01/17 05:59:44;;;;;;;29.20;21.90;;;;;;;-4.84;94.10;97976.09;4962416;28;20457;-74
2021/01/17 06:02:15;;;;;;;26.70;19.93;;;;;;;-4.84;95.11;97989.03;4965634;28;20505;-74
2021/01/17 06:04:44;;;;;;;28.47;20.90;;;;;;;-4.87;95.29;97987.44;4962430;28;20476;-74
2021/01/17 06:07:12;;;;;;;28.07;20.30;;;;;;;-4.83;95.93;97983.78;4964479;28;20485;-74
2021/01/17 06:09:39;;;;;;;28.13;21.07;;;;;;;-4.91;96.65;97987.63;4958555;28;20464;-73
2021/01/17 06:12:07;;;;;;;31.00;21.67;;;;;;;-4.97;97.25;97992.16;4960946;28;21361;-74
2021/01/17 06:14:34;;;;;;;30.17;21.37;;;;;;;-4.84;96.87;97996.78;4959807;28;20955;-72
2021/01/17 06:17:02;;;;;;;26.27;20.63;;;;;;;-4.98;96.65;97995.66;4961331;28;20559;-73
2021/01/17 06:19:31;;;;;;;27.23;20.83;;;;;;;-5.00;96.73;97996.59;4961711;28;20469;-74
2021/01/17 06:22:05;;;;;;;26.57;19.70;;;;;;;-5.00;96.96;97992.28;4963117;28;20462;-75
2021/01/17 06:24:36;;;;;;;27.03;21.63;;;;;;;-4.94;97.32;97999.78;4962669;28;20493;-75
2021/01/17 06:27:05;;;;;;;28.07;20.63;;;;;;;-4.96;96.94;98000.72;4963337;28;20580;-76
2021/01/17 06:29:40;;;;;;;28.60;21.47;;;;;;;-4.89;97.39;98014.25;4964796;28;20650;-77
2021/01/17 06:32:11;;;;;;;28.37;21.10;;;;;;;-4.84;96.29;98013.16;4963005;28;20564;-77
2021/01/17 06:34:43;;;;;;;30.33;21.50;;;;;;;-4.81;96.83;98012.16;4964499;28;20891;-77
2021/01/17 06:37:12;;;;;;;26.07;21.07;;;;;;;-4.81;96.48;98009.56;4963043;28;20488;-77
2021/01/17 06:39:44;;;;;;;28.60;21.80;;;;;;;-4.93;97.88;98013.53;4963363;28;20973;-77
2021/01/17 06:42:13;;;;;;;25.90;20.73;;;;;;;-5.03;99.36;98022.59;4965347;28;20458;-77
2021/01/17 06:44:41;;;;;;;31.60;21.77;;;;;;;-5.00;99.73;98027.63;4964989;28;21108;-76
2021/01/17 06:47:19;;;;;;;28.43;21.60;;;;;;;-4.87;99.53;98026.22;4965005;28;20842;-77
2021/01/17 06:49:47;;;;;;;29.63;21.33;;;;;;;-4.79;99.22;98023.25;4963408;28;20450;-77
2021/01/17 06:52:16;;;;;;;28.00;20.33;;;;;;;-4.77;99.42;98020.63;4961808;28;20450;-77
2021/01/17 06:54:46;;;;;;;28.93;22.33;;;;;;;-4.85;100.00;98015.78;4963948;28;20569;-77
2021/01/17 06:57:14;;;;;;;28.20;22.27;;;;;;;-4.69;100.00;98026.28;4962629;28;20516;-76
2021/01/17 06:59:43;;;;;;;27.90;21.63;;;;;;;-4.67;99.60;98029.66;4963827;28;20458;-76
2021/01/17 07:02:32;;;;;;;30.80;23.47;;;;;;;-4.71;99.99;98022.94;4964023;28;20469;-77
2021/01/17 07:05:35;;;;;;;29.67;22.40;;;;;;;-4.72;100.00;98029.03;4960771;28;20477;-74
2021/01/17 07:08:44;;;;;;;33.67;21.20;;;;;;;-4.61;99.54;98034.56;4938689;28;20469;-67
2021/01/17 07:11:19;;;;;;;30.97;22.47;;;;;;;-4.56;99.44;98031.78;4963979;28;20461;-74
2021/01/17 07:13:48;;;;;;;31.30;23.20;;;;;;;-4.66;100.00;98034.78;4963060;28;20477;-74
2021/01/17 07:16:32;;;;;;;28.03;21.97;;;;;;;-4.63;100.00;98026.03;4960727;28;20489;-74
2021/01/17 07:19:07;;;;;;;30.10;22.97;;;;;;;-4.52;100.00;98035.91;4964700;28;20524;-73
2021/01/17 07:21:40;;;;;;;32.90;23.77;;;;;;;-4.60;100.00;98038.00;4971417;28;20502;-73
2021/01/17 07:24:10;;;;;;;34.50;24.07;;;;;;;-4.58;100.00;98038.75;4964331;28;20486;-74
2021/01/17 07:26:48;;;;;;;30.90;24.20;;;;;;;-4.61;100.00;98033.72;4971287;28;20857;-74
2021/01/17 07:29:17;;;;;;;32.23;22.27;;;;;;;-4.65;100.00;98041.63;4966420;28;20548;-73
2021/01/17 07:31:46;;;;;;;34.00;23.93;;;;;;;-4.62;100.00;98050.16;4963435;28;20454;-74
2021/01/17 07:34:14;;;;;;;28.60;22.90;;;;;;;-4.52;100.00;98046.25;4965210;28;20536;-74
2021/01/17 07:36:48;;;;;;;31.57;24.67;;;;;;;-4.59;100.00;98047.44;4961604;28;20924;-74
2021/01/17 07:39:18;;;;;;;31.17;24.70;;;;;;;-4.48;100.00;98055.53;4962044;28;20483;-74
2021/01/17 07:41:50;;;;;;;32.73;25.23;;;;;;;-4.27;100.00;98053.75;4959492;28;20457;-74
2021/01/17 07:44:19;;;;;;;40.37;25.87;;;;;;;-4.28;100.00;98049.47;4961811;28;20489;-75
2021/01/17 07:46:46;;;;;;;33.77;24.23;;;;;;;-4.44;100.00;98058.84;4963279;28;21109;-74
2021/01/17 07:49:16;;;;;;;32.60;24.67;;;;;;;-4.51;100.00;98053.09;4962913;28;20528;-75
2021/01/17 07:51:44;;;;;;;32.47;23.90;;;;;;;-4.31;100.00;98051.38;4968163;28;20809;-74
2021/01/17 07:54:20;;;;;;;35.27;25.57;;;;;;;-4.39;100.00;98055.13;4965558;28;20454;-73
2021/01/17 07:56:48;;;;;;;34.77;26.27;;;;;;;-4.42;100.00;98057.84;4962647;28;21072;-76
2021/01/17 07:59:24;;;;;;;30.50;24.00;;;;;;;-4.28;100.00;98065.00;4962261;28;20845;-76
2021/01/17 08:01:52;;;;;;;34.60;24.53;;;;;;;-4.21;100.00;98057.81;4963094;28;20471;-75
2021/01/17 08:04:23;;;;;;;30.77;24.30;;;;;;;-4.09;99.71;98067.59;4963543;28;20489;-75
2021/01/17 08:06:51;;;;;;;35.47;25.70;;;;;;;-4.26;99.58;98065.78;4964101;28;20867;-76
2021/01/17 08:09:20;;;;;;;33.20;24.90;;;;;;;-4.25;100.00;98066.63;4965939;28;20536;-74
2021/01/17 08:11:49;;;;;;;36.37;25.83;;;;;;;-4.19;100.00;98063.75;4967389;28;20453;-73
2021/01/17 08:14:23;;;;;;;36.27;25.83;;;;;;;-3.97;100.00;98062.78;4966166;28;20533;-74
2021/01/17 08:17:05;;;;;;;33.90;26.27;;;;;;;-4.04;100.00;98063.94;4964071;28;20547;-74
2021/01/17 08:19:43;;;;;;;42.67;28.00;;;;;;;-3.79;99.40;98068.81;4963206;28;20465;-75
2021/01/17 08:22:47;;;;;;;37.87;26.60;;;;;;;-3.99;98.22;98065.44;4964168;28;20575;-75
2021/01/17 08:25:34;;;;;;;34.90;26.27;;;;;;;-3.88;99.08;98064.94;4962281;28;20487;-74
2021/01/17 08:28:37;;;;;;;31.13;24.87;;;;;;;-3.83;97.20;98067.28;4964305;28;20464;-75
2021/01/17 08:31:33;;;;;;;32.20;24.00;;;;;;;-3.81;98.87;98061.13;4962477;28;20469;-74
2021/01/17 08:34:13;;;;;;;31.90;24.70;;;;;;;-3.90;99.30;98061.59;4960511;28;20472;-73
2021/01/17 08:36:41;;;;;;;32.73;24.07;;;;;;;-3.73;98.19;98067.72;4962857;28;20512;-75
2021/01/17 08:39:09;;;;;;;34.60;26.30;;;;;;;-3.56;97.17;98065.16;4962299;28;20837;-73
2021/01/17 08:41:40;;;;;;;33.73;25.37;;;;;;;-3.65;97.22;98068.16;4962333;28;20516;-74
2021/01/17 08:44:13;;;;;;;33.83;25.93;;;;;;;-3.76;97.68;98073.88;4958440;28;20495;-74
2021/01/17 08:46:41;;;;;;;34.83;25.20;;;;;;;-3.72;97.38;98075.41;4962414;28;20474;-75
2021/01/17 08:49:09;;;;;;;34.20;26.07;;;;;;;-3.73;98.71;98073.75;4961953;28;20465;-74
2021/01/17 08:51:37;;;;;;;38.50;27.83;;;;;;;-3.67;98.13;98070.84;4961102;28;20548;-74
2021/01/17 08:54:26;;;;;;;37.87;28.03;;;;;;;-3.54;99.08;98071.13;4959155;28;20859;-72
2021/01/17 08:56:55;;;;;;;39.17;29.27;;;;;;;-3.67;99.98;98083.81;4961471;28;20480;-74
2021/01/17 08:59:38;;;;;;;33.93;26.13;;;;;;;-3.82;100.00;98076.75;4958692;28;20485;-74
2021/01/17 09:02:05;;;;;;;104.03;90.10;;;;;;;-3.66;99.82;98077.72;4962900;28;20557;-70
2021/01/17 09:04:33;;;;;;;109.37;83.43;;;;;;;-3.78;100.00;98081.72;4959314;28;20860;-71
2021/01/17 09:07:00;;;;;;;71.97;58.83;;;;;;;-3.66;100.00;98089.81;4960427;28;20792;-74
2021/01/17 09:09:28;;;;;;;43.27;33.87;;;;;;;-3.58;100.00;98099.81;4962363;28;20449;-74
2021/01/17 09:12:10;;;;;;;40.27;31.33;;;;;;;-3.52;100.00;98102.97;4959766;28;20755;-71
2021/01/17 09:14:37;;;;;;;36.27;27.07;;;;;;;-3.33;98.56;98099.47;4960600;28;20596;-73
2021/01/17 09:17:09;;;;;;;37.90;28.63;;;;;;;-3.33;98.54;98102.06;4963753;28;20481;-73
2021/01/17 09:19:37;;;;;;;35.17;25.77;;;;;;;-2.91;96.00;98118.22;4964628;28;20450;-73
2021/01/17 09:22:06;;;;;;;33.47;27.90;;;;;;;-3.07;96.00;98116.34;4962607;28;20953;-74
2021/01/17 09:24:35;;;;;;;33.47;25.07;;;;;;;-3.17;97.09;98116.91;4961847;28;20532;-74
2021/01/17 09:27:08;;;;;;;33.20;25.20;;;;;;;-3.08;96.91;98121.63;4961849;28;20477;-74
2021/01/17 09:29:36;;;;;;;32.87;25.00;;;;;;;-2.93;94.88;98125.22;4963425;28;20233;-71
2021/01/17 09:32:09;;;;;;;32.03;25.27;;;;;;;-3.07;95.02;98123.31;4960858;28;20873;-74
2021/01/17 09:34:38;;;;;;;35.43;26.77;;;;;;;-3.23;96.77;98133.59;4963097;28;20217;-73
2021/01/17 09:37:11;;;;;;;39.63;26.60;;;;;;;-3.14;96.81;98133.13;4963424;28;20226;-74
2021/01/17 09:39:41;;;;;;;31.87;25.63;;;;;;;-2.98;96.23;98132.41;4962199;28;20465;-73
2021/01/17 09:42:11;;;;;;;36.90;25.17;;;;;;;-2.67;92.45;98136.88;4962571;28;20207;-73
2021/01/17 09:44:40;;;;;;;35.17;25.27;;;;;;;-2.77;94.47;98138.28;4964307;28;20602;-73
2021/01/17 09:47:14;;;;;;;32.80;26.53;;;;;;;-2.74;95.03;98129.47;4966459;28;20477;-72
2021/01/17 09:49:41;;;;;;;34.37;24.83;;;;;;;-2.86;94.11;98142.16;4964919;28;20218;-72
2021/01/17 09:52:14;;;;;;;34.17;25.83;;;;;;;-2.88;94.67;98148.31;4966271;28;20206;-73
2021/01/17 09:54:41;;;;;;;34.17;26.87;;;;;;;-2.69;93.69;98145.66;4964640;28;20207;-73
2021/01/17 09:57:20;;;;;;;33.43;25.97;;;;;;;-2.86;94.52;98147.34;4964973;28;20257;-74
2021/01/17 09:59:48;;;;;;;33.30;25.37;;;;;;;-2.58;93.25;98145.13;4964564;28;20453;-72
2021/01/17 10:02:19;;;;;;;35.63;25.30;;;;;;;-2.48;91.69;98148.91;4965663;28;20230;-73
2021/01/17 10:04:46;;;;;;;36.07;29.53;;;;;;;-2.39;89.51;98145.03;4962432;28;20231;-73
2021/01/17 10:07:15;;;;;;;33.17;25.73;;;;;;;-2.72;92.69;98149.25;4965364;28;20293;-72
2021/01/17 10:09:42;;;;;;;39.00;29.77;;;;;;;-2.66;93.72;98143.75;4966341;28;20571;-73
2021/01/17 10:12:11;;;;;;;45.23;39.97;;;;;;;-2.62;92.04;98139.25;4966549;28;20613;-71
2021/01/17 10:14:39;;;;;;;36.20;28.90;;;;;;;-2.74;92.29;98143.31;4964747;28;20214;-73
2021/01/17 10:17:08;;;;;;;36.17;26.50;;;;;;;-2.51;92.59;98156.84;4964295;28;20516;-75
2021/01/17 10:19:37;;;;;;;34.40;25.50;;;;;;;-2.64;91.33;98156.66;4965536;28;20532;-73
2021/01/17 10:22:06;;;;;;;35.97;26.60;;;;;;;-2.59;90.39;98148.63;4964345;28;20557;-73
2021/01/17 10:24:33;;;;;;;37.07;26.67;;;;;;;-2.56;89.14;98154.53;4963682;28;20592;-73
2021/01/17 10:27:02;;;;;;;33.30;25.53;;;;;;;-2.45;89.73;98150.53;4962564;28;20572;-73
2021/01/17 10:29:30;;;;;;;32.97;25.57;;;;;;;-2.41;89.75;98152.06;4963469;28;20452;-73
2021/01/17 10:32:01;;;;;;;33.67;26.17;;;;;;;-2.42;93.63;98152.97;4961621;28;20465;-74
2021/01/17 10:34:31;;;;;;;34.17;25.97;;;;;;;-2.45;91.55;98158.31;4962870;28;20454;-70
2021/01/17 10:37:02;;;;;;;34.10;25.60;;;;;;;-2.26;89.57;98155.63;4962026;28;20930;-71
2021/01/17 10:39:30;;;;;;;33.20;24.77;;;;;;;-2.10;91.21;98156.47;4961467;28;20877;-72
2021/01/17 10:42:09;;;;;;;35.13;25.70;;;;;;;-2.29;89.38;98154.00;4963092;28;20556;-71
2021/01/17 10:44:48;;;;;;;30.97;23.77;;;;;;;-2.43;90.75;98162.53;4955131;28;20489;-72
2021/01/17 10:47:27;;;;;;;32.83;25.00;;;;;;;-2.07;91.46;98158.94;4961562;28;20589;-73
2021/01/17 10:49:57;;;;;;;31.83;24.43;;;;;;;-2.17;89.81;98155.13;4953650;28;20560;-73
2021/01/17 10:52:28;;;;;;;34.67;25.57;;;;;;;-1.89;90.07;98156.28;4960535;28;20207;-73
2021/01/17 10:54:55;;;;;;;32.90;24.27;;;;;;;-1.88;88.84;98155.38;4960459;28;20210;-72
2021/01/17 10:57:22;;;;;;;29.83;23.83;;;;;;;-2.21;90.79;98154.47;4962835;28;20570;-73
2021/01/17 10:59:51;;;;;;;30.90;23.93;;;;;;;-1.88;88.93;98159.75;4963633;28;20208;-71
2021/01/17 11:02:23;;;;;;;33.57;25.03;;;;;;;-1.97;89.20;98148.06;4961678;28;20218;-72
2021/01/17 11:04:51;;;;;;;32.47;24.87;;;;;;;-1.67;88.38;98149.94;4963560;28;20492;-73
2021/01/17 11:07:25;;;;;;;33.67;24.10;;;;;;;-1.90;89.21;98149.41;4959486;28;20485;-72
2021/01/17 11:09:52;;;;;;;33.33;24.97;;;;;;;-2.04;90.36;98152.75;4963298;28;20214;-71
2021/01/17 11:12:36;;;;;;;30.63;24.73;;;;;;;-1.97;89.74;98145.47;4963222;28;20458;-72
2021/01/17 11:15:11;;;;;;;35.47;26.10;;;;;;;-2.20;90.34;98150.97;4963368;28;20461;-73
2021/01/17 11:17:56;;;;;;;34.40;25.30;;;;;;;-1.91;89.55;98155.53;4963652;28;20886;-72
2021/01/17 11:20:25;;;;;;;32.77;24.30;;;;;;;-2.04;90.38;98155.34;4961254;28;20529;-73
2021/01/17 11:22:53;;;;;;;32.53;25.20;;;;;;;-1.92;90.16;98148.66;4962738;28;20458;-72
2021/01/17 11:25:20;;;;;;;35.00;26.97;;;;;;;-1.94;90.97;98151.31;4962502;28;20223;-72
2021/01/17 11:27:47;;;;;;;35.63;25.73;;;;;;;-1.88;91.38;98149.34;4962581;28;20219;-73
2021/01/17 11:30:16;;;;;;;31.77;25.57;;;;;;;-1.60;87.35;98153.88;4963954;28;20238;-72
2021/01/17 11:32:43;;;;;;;32.30;24.87;;;;;;;-1.78;90.66;98148.75;4962089;28;20213;-73